M I D A S
Marine Information and Data Acquisition System
Tripno 2304 of the Zeeleeuw from 2012-02-21 07:21:21 to 2012-02-21 16:34:13
Back to CruiseResearch ActivitiesStationsMapUnderway DataData graphs

EquipmentUnitsComment
TimeDGPSUTC
LatitudeDGPSDM.mWGS84
LongitudeDGPSDM.mWGS84
HeadingGyrodeg 
SOGDGPSknotsSpeed over ground
COGDGPSdegCourse over ground
DepthEcho soundermeters200 kHz
Missing or incorrect values are displayed as -999
Navigation data collected by the RV Zeeleeuw from 2012-02-21 07:05:18 to 2012-02-21 16:35:23
                                                                                    Next 1000 lines
Time Latitude Longitude Heading SOG COG Depth
2012-02-21 07:05:28 51°13.636 2°56.016 125.7 0.1 311 -999
2012-02-21 07:05:33 51°13.636 2°56.015 125.7 0.1 1 -999
2012-02-21 07:05:38 51°13.636 2°56.016 125.7 0.3 27 -999
2012-02-21 07:05:43 51°13.636 2°56.016 125.7 0.1 45 -999
2012-02-21 07:05:48 51°13.636 2°56.016 125.7 -999 179 -999
2012-02-21 07:05:53 51°13.636 2°56.016 125.7 -999 176 -999
2012-02-21 07:05:58 51°13.636 2°56.016 125.7 0.1 204 -999
2012-02-21 07:06:03 51°13.636 2°56.016 125.7 0.1 225 -999
2012-02-21 07:06:08 51°13.636 2°56.016 125.7 -999 69 -999
2012-02-21 07:06:12 51°13.636 2°56.016 125.7 -999 50 -999
2012-02-21 07:06:17 51°13.637 2°56.016 125.7 0.1 5 -999
2012-02-21 07:06:22 51°13.637 2°56.016 125.7 -999 141 -999
2012-02-21 07:06:27 51°13.637 2°56.016 125.7 -999 37 -999
2012-02-21 07:06:32 51°13.637 2°56.017 125.7 -999 3 -999
2012-02-21 07:06:38 51°13.637 2°56.017 125.7 0.1 40 -999
2012-02-21 07:06:43 51°13.637 2°56.017 125.7 -999 35 -999
2012-02-21 07:06:48 51°13.637 2°56.017 125.7 -999 11 -999
2012-02-21 07:06:53 51°13.637 2°56.017 125.7 -999 23 -999
2012-02-21 07:06:57 51°13.637 2°56.017 125.7 0.1 3 -999
2012-02-21 07:07:03 51°13.637 2°56.017 125.7 -999 328 -999
2012-02-21 07:07:07 51°13.637 2°56.017 125.7 -999 197 -999
2012-02-21 07:07:13 51°13.637 2°56.017 125.7 -999 201 -999
2012-02-21 07:07:18 51°13.637 2°56.017 125.7 -999 45 -999
2012-02-21 07:07:22 51°13.637 2°56.017 125.7 0.1 291 -999
2012-02-21 07:07:27 51°13.637 2°56.017 125.7 -999 306 -999
2012-02-21 07:07:32 51°13.637 2°56.017 125.7 -999 229 -999
2012-02-21 07:07:37 51°13.637 2°56.017 125.7 -999 290 -999
2012-02-21 07:07:42 51°13.637 2°56.017 125.7 -999 300 -999
2012-02-21 07:07:47 51°13.637 2°56.017 125.7 -999 54 -999
2012-02-21 07:07:53 51°13.637 2°56.017 125.7 0.1 12 -999
2012-02-21 07:07:58 51°13.637 2°56.018 125.7 -999 42 -999
2012-02-21 07:08:03 51°13.637 2°56.018 125.6 -999 83 -999
2012-02-21 07:08:07 51°13.637 2°56.018 125.6 -999 24 -999
2012-02-21 07:08:13 51°13.637 2°56.018 125.6 -999 118 -999
2012-02-21 07:08:18 51°13.636 2°56.018 125.6 0.1 206 -999
2012-02-21 07:08:23 51°13.636 2°56.018 125.6 -999 60 -999
2012-02-21 07:08:27 51°13.636 2°56.018 125.6 -999 48 -999
2012-02-21 07:08:33 51°13.636 2°56.018 125.6 -999 100 -999
2012-02-21 07:08:38 51°13.636 2°56.018 125.6 -999 194 -999
2012-02-21 07:08:43 51°13.636 2°56.018 125.6 -999 64 -999
2012-02-21 07:08:47 51°13.636 2°56.018 125.6 -999 354 -999
2012-02-21 07:08:53 51°13.636 2°56.018 125.6 0.1 21 -999
2012-02-21 07:08:57 51°13.636 2°56.018 125.6 -999 13 -999
2012-02-21 07:09:03 51°13.636 2°56.018 125.6 -999 27 -999
2012-02-21 07:09:07 51°13.636 2°56.018 125.6 0.1 39 -999
2012-02-21 07:09:12 51°13.636 2°56.018 125.6 0.1 22 -999
2012-02-21 07:09:17 51°13.636 2°56.018 125.6 0.1 212 -999
2012-02-21 07:09:23 51°13.636 2°56.018 125.7 0.1 214 -999
2012-02-21 07:09:28 51°13.636 2°56.018 125.7 -999 54 -999
2012-02-21 07:09:33 51°13.636 2°56.018 125.7 -999 31 -999
2012-02-21 07:09:38 51°13.636 2°56.018 125.7 -999 236 -999
2012-02-21 07:09:43 51°13.636 2°56.018 125.7 -999 277 -999
2012-02-21 07:09:48 51°13.636 2°56.018 125.7 -999 200 -999
2012-02-21 07:09:52 51°13.636 2°56.018 125.7 -999 206 -999
2012-02-21 07:09:58 51°13.636 2°56.018 125.7 -999 19 -999
2012-02-21 07:10:03 51°13.636 2°56.018 125.7 -999 44 -999
2012-02-21 07:10:08 51°13.636 2°56.018 125.7 0.1 31 -999
2012-02-21 07:10:12 51°13.636 2°56.018 125.7 0.1 33 -999
2012-02-21 07:10:18 51°13.636 2°56.018 125.8 -999 38 -999
2012-02-21 07:10:23 51°13.636 2°56.019 125.8 -999 356 -999
2012-02-21 07:10:27 51°13.635 2°56.019 125.8 -999 352 -999
2012-02-21 07:10:33 51°13.635 2°56.019 125.8 -999 188 -999
2012-02-21 07:10:37 51°13.635 2°56.019 125.8 -999 235 -999
2012-02-21 07:10:43 51°13.635 2°56.019 125.8 0.1 211 -999
2012-02-21 07:10:48 51°13.635 2°56.019 125.8 -999 166 -999
2012-02-21 07:10:53 51°13.636 2°56.019 125.8 -999 110 -999
2012-02-21 07:10:57 51°13.636 2°56.019 125.8 0.1 71 -999
2012-02-21 07:11:02 51°13.635 2°56.019 125.9 -999 121 -999
2012-02-21 07:11:07 51°13.635 2°56.019 125.9 -999 65 -999
2012-02-21 07:11:12 51°13.634 2°56.019 125.9 -999 115 -999
2012-02-21 07:11:18 51°13.634 2°56.019 125.9 0.1 42 -999
2012-02-21 07:11:22 51°13.634 2°56.019 125.9 0.1 9 -999
2012-02-21 07:11:28 51°13.634 2°56.018 125.9 -999 321 -999
2012-02-21 07:11:33 51°13.634 2°56.018 125.9 0.1 216 -999
2012-02-21 07:11:38 51°13.634 2°56.018 125.8 0.1 226 -999
2012-02-21 07:11:42 51°13.634 2°56.018 125.8 -999 306 -999
2012-02-21 07:11:48 51°13.634 2°56.018 125.8 -999 317 -999
2012-02-21 07:11:53 51°13.634 2°56.018 125.7 0.1 207 -999
2012-02-21 07:11:58 51°13.634 2°56.019 125.7 0.1 209 -999
2012-02-21 07:12:03 51°13.635 2°56.019 125.7 -999 52 -999
2012-02-21 07:12:08 51°13.635 2°56.019 125.7 -999 54 -999
2012-02-21 07:12:13 51°13.635 2°56.019 125.7 -999 258 -999
2012-02-21 07:12:17 51°13.635 2°56.019 125.7 0.1 239 -999
2012-02-21 07:12:21 51°13.635 2°56.019 125.7 0.1 238 -999
2012-02-21 07:12:27 51°13.634 2°56.018 125.7 0.1 229 -999
2012-02-21 07:12:33 51°13.635 2°56.018 125.7 -999 236 -999
2012-02-21 07:12:38 51°13.635 2°56.019 125.7 0.1 35 -999
2012-02-21 07:12:43 51°13.635 2°56.019 125.7 -999 359 -999
2012-02-21 07:12:47 51°13.635 2°56.019 125.7 -999 266 -999
2012-02-21 07:12:52 51°13.635 2°56.018 125.7 0.1 224 -999
2012-02-21 07:12:57 51°13.635 2°56.018 125.7 0.1 227 -999
2012-02-21 07:13:02 51°13.635 2°56.018 125.7 -999 250 -999
2012-02-21 07:13:07 51°13.636 2°56.016 125.7 -999 195 -999
2012-02-21 07:13:13 51°13.638 2°56.016 125.7 0.1 229 -999
2012-02-21 07:13:18 51°13.638 2°56.017 125.7 0.1 16 -999
2012-02-21 07:13:23 51°13.638 2°56.017 125.7 0.1 320 -999
2012-02-21 07:13:28 51°13.638 2°56.017 125.7 -999 291 -999
2012-02-21 07:13:33 51°13.638 2°56.017 125.7 0.1 227 -999
2012-02-21 07:13:38 51°13.639 2°56.017 125.6 -999 187 -999
2012-02-21 07:13:42 51°13.639 2°56.017 125.6 -999 174 -999
2012-02-21 07:13:48 51°13.638 2°56.018 125.6 -999 191 -999
2012-02-21 07:13:53 51°13.638 2°56.018 125.6 0.1 207 -999
2012-02-21 07:13:58 51°13.638 2°56.018 125.6 0.1 205 -999
2012-02-21 07:14:02 51°13.638 2°56.018 125.6 0.1 208 -999
2012-02-21 07:14:07 51°13.637 2°56.018 125.6 -999 193 -999
2012-02-21 07:14:13 51°13.637 2°56.018 125.6 -999 231 -999
2012-02-21 07:14:18 51°13.637 2°56.018 125.6 0.1 210 -999
2012-02-21 07:14:23 51°13.637 2°56.018 125.7 -999 142 -999
2012-02-21 07:14:28 51°13.637 2°56.018 125.7 -999 169 -999
2012-02-21 07:14:33 51°13.637 2°56.018 125.7 -999 231 -999
2012-02-21 07:14:37 51°13.637 2°56.019 125.8 -999 30 -999
2012-02-21 07:14:43 51°13.637 2°56.019 125.8 0.1 20 -999
2012-02-21 07:14:48 51°13.637 2°56.019 125.8 0.1 37 -999
2012-02-21 07:14:53 51°13.637 2°56.018 125.8 -999 280 -999
2012-02-21 07:14:57 51°13.636 2°56.018 125.8 -999 233 -999
2012-02-21 07:15:03 51°13.636 2°56.018 125.8 -999 282 -999
2012-02-21 07:15:08 51°13.636 2°56.018 125.8 -999 235 -999
2012-02-21 07:15:12 51°13.636 2°56.018 125.8 -999 321 -999
2012-02-21 07:15:17 51°13.636 2°56.018 125.8 -999 23 -999
2012-02-21 07:15:22 51°13.636 2°56.018 125.8 -999 85 -999
2012-02-21 07:15:27 51°13.636 2°56.018 125.8 -999 112 -999
2012-02-21 07:15:33 51°13.636 2°56.018 125.8 -999 69 -999
2012-02-21 07:15:38 51°13.636 2°56.018 125.8 0.1 222 -999
2012-02-21 07:15:42 51°13.636 2°56.018 125.8 0.1 215 -999
2012-02-21 07:15:48 51°13.636 2°56.018 125.8 0.1 221 -999
2012-02-21 07:15:53 51°13.637 2°56.018 125.9 0.1 200 -999
2012-02-21 07:15:58 51°13.637 2°56.018 125.9 0.1 164 -999
2012-02-21 07:16:02 51°13.637 2°56.018 125.9 0.1 204 -999
2012-02-21 07:16:08 51°13.637 2°56.018 125.9 0.1 209 -999
2012-02-21 07:16:13 51°13.636 2°56.018 125.9 0.1 221 -999
2012-02-21 07:16:18 51°13.636 2°56.018 125.9 -999 4 -999
2012-02-21 07:16:22 51°13.637 2°56.018 125.9 -999 56 -999
2012-02-21 07:16:27 51°13.637 2°56.018 125.9 -999 195 -999
2012-02-21 07:16:32 51°13.637 2°56.018 125.9 -999 200 -999
2012-02-21 07:16:37 51°13.637 2°56.018 125.9 -999 137 -999
2012-02-21 07:16:42 51°13.637 2°56.018 125.9 -999 54 -999
2012-02-21 07:16:48 51°13.637 2°56.018 125.9 -999 97 -999
2012-02-21 07:16:53 51°13.636 2°56.018 125.9 0.1 226 -999
2012-02-21 07:16:58 51°13.636 2°56.018 125.8 -999 6 -999
2012-02-21 07:17:03 51°13.637 2°56.018 125.8 -999 66 -999
2012-02-21 07:17:07 51°13.636 2°56.018 125.8 -999 240 -999
2012-02-21 07:17:13 51°13.636 2°56.018 125.8 0.1 207 -999
2012-02-21 07:17:18 51°13.636 2°56.018 125.8 0.1 51 -999
2012-02-21 07:17:23 51°13.636 2°56.018 125.8 0.1 38 -999
2012-02-21 07:17:28 51°13.636 2°56.018 125.8 -999 169 -999
2012-02-21 07:17:33 51°13.636 2°56.018 125.8 -999 100 -999
2012-02-21 07:17:38 51°13.636 2°56.018 125.8 0.1 124 -999
2012-02-21 07:17:43 51°13.636 2°56.018 125.8 -999 29 -999
2012-02-21 07:17:47 51°13.636 2°56.018 125.7 -999 298 -999
2012-02-21 07:17:53 51°13.635 2°56.018 125.7 -999 30 -999
2012-02-21 07:17:58 51°13.636 2°56.018 125.7 -999 37 -999
2012-02-21 07:18:03 51°13.636 2°56.018 125.7 -999 48 -999
2012-02-21 07:18:08 51°13.636 2°56.018 125.7 -999 352 -999
2012-02-21 07:18:13 51°13.636 2°56.019 125.7 -999 3 -999
2012-02-21 07:18:18 51°13.635 2°56.018 125.6 -999 190 -999
2012-02-21 07:18:23 51°13.635 2°56.017 125.5 0.2 227 -999
2012-02-21 07:18:27 51°13.634 2°56.017 125.5 0.2 226 -999
2012-02-21 07:18:33 51°13.635 2°56.017 125.5 0.1 223 -999
2012-02-21 07:18:38 51°13.635 2°56.018 125.5 -999 228 -999
2012-02-21 07:18:42 51°13.635 2°56.018 125.5 -999 50 -999
2012-02-21 07:18:47 51°13.635 2°56.018 125.5 -999 270 -999
2012-02-21 07:18:52 51°13.635 2°56.018 125.5 0.1 231 -999
2012-02-21 07:18:58 51°13.635 2°56.018 125.6 -999 210 -999
2012-02-21 07:19:03 51°13.635 2°56.018 125.8 -999 173 -999
2012-02-21 07:19:07 51°13.634 2°56.018 125.9 -999 208 -999
2012-02-21 07:19:12 51°13.634 2°56.018 126.1 -999 237 -999
2012-02-21 07:19:18 51°13.634 2°56.018 126.1 -999 217 -999
2012-02-21 07:19:23 51°13.634 2°56.018 126.2 -999 222 -999
2012-02-21 07:19:27 51°13.633 2°56.018 126.2 0.1 239 -999
2012-02-21 07:19:33 51°13.633 2°56.018 126.2 0.1 245 -999
2012-02-21 07:19:37 51°13.633 2°56.017 126.2 0.1 224 -999
2012-02-21 07:19:42 51°13.633 2°56.017 126.2 0.1 217 -999
2012-02-21 07:19:47 51°13.633 2°56.018 126.1 -999 192 -999
2012-02-21 07:19:52 51°13.634 2°56.018 126.1 0.1 266 -999
2012-02-21 07:19:57 51°13.635 2°56.018 126.2 0.1 198 -999
2012-02-21 07:20:02 51°13.635 2°56.018 126.2 0.1 53 -999
2012-02-21 07:20:07 51°13.636 2°56.018 126.2 -999 78 -999
2012-02-21 07:20:13 51°13.636 2°56.017 126 -999 262 -999
2012-02-21 07:20:18 51°13.636 2°56.017 125.8 0.1 226 -999
2012-02-21 07:20:22 51°13.636 2°56.017 125.8 -999 247 -999
2012-02-21 07:20:27 51°13.636 2°56.017 125.7 -999 58 -999
2012-02-21 07:20:33 51°13.636 2°56.017 125.7 -999 2 -999
2012-02-21 07:20:38 51°13.636 2°56.017 125.5 0.1 268 -999
2012-02-21 07:20:42 51°13.636 2°56.017 125.5 0.1 184 -999
2012-02-21 07:20:47 51°13.636 2°56.018 125.5 0.1 114 -999
2012-02-21 07:20:52 51°13.636 2°56.017 125.5 0.1 218 -999
2012-02-21 07:20:58 51°13.636 2°56.017 126.1 0.1 332 -999
2012-02-21 07:21:03 51°13.636 2°56.017 126.4 0.1 25 -999
2012-02-21 07:21:07 51°13.636 2°56.017 126.4 -999 115 -999
2012-02-21 07:21:12 51°13.636 2°56.017 126.6 0.1 256 -999
2012-02-21 07:21:18 51°13.636 2°56.018 126.8 -999 250 -999
2012-02-21 07:21:23 51°13.636 2°56.018 126.8 -999 82 -999
2012-02-21 07:21:27 51°13.636 2°56.018 126.8 0.1 63 -999
2012-02-21 07:21:32 51°13.636 2°56.018 126.8 -999 356 -999
2012-02-21 07:21:37 51°13.636 2°56.017 126.9 -999 -999 -999
2012-02-21 07:21:43 51°13.636 2°56.018 127 -999 348 -999
2012-02-21 07:21:47 51°13.636 2°56.018 127 -999 25 -999
2012-02-21 07:21:52 51°13.636 2°56.018 127.1 -999 344 -999
2012-02-21 07:21:57 51°13.636 2°56.018 127.1 -999 65 -999
2012-02-21 07:22:03 51°13.636 2°56.018 127.1 -999 46 -999
2012-02-21 07:22:07 51°13.636 2°56.018 127.1 -999 50 -999
2012-02-21 07:22:12 51°13.636 2°56.018 127.1 0.1 40 -999
2012-02-21 07:22:17 51°13.636 2°56.018 126.6 0.1 40 -999
2012-02-21 07:22:22 51°13.636 2°56.018 126 0.1 200 -999
2012-02-21 07:22:27 51°13.636 2°56.018 125.3 -999 173 -999
2012-02-21 07:22:32 51°13.636 2°56.018 124.7 -999 236 -999
2012-02-21 07:22:37 51°13.636 2°56.018 124.2 0.1 229 -999
2012-02-21 07:22:42 51°13.636 2°56.018 123.7 0.1 223 -999
2012-02-21 07:22:47 51°13.636 2°56.018 123.2 -999 243 -999
2012-02-21 07:22:52 51°13.636 2°56.018 122.7 0.1 176 -999
2012-02-21 07:22:57 51°13.636 2°56.018 122.2 0.1 184 -999
2012-02-21 07:23:02 51°13.636 2°56.018 121.7 0.1 205 -999
2012-02-21 07:23:07 51°13.636 2°56.018 121 0.1 187 -999
2012-02-21 07:23:12 51°13.636 2°56.018 120.3 0.1 68 -999
2012-02-21 07:23:17 51°13.636 2°56.018 119.7 0.1 107 -999
2012-02-21 07:23:22 51°13.636 2°56.018 119 0.1 182 -999
2012-02-21 07:23:27 51°13.635 2°56.018 118.3 0.1 228 -999
2012-02-21 07:23:32 51°13.635 2°56.018 117.5 -999 156 -999
2012-02-21 07:23:37 51°13.635 2°56.018 116.7 0.1 188 -999
2012-02-21 07:23:42 51°13.635 2°56.018 115.7 0.1 148 -999
2012-02-21 07:23:47 51°13.635 2°56.018 114.8 0.1 204 -999
2012-02-21 07:23:52 51°13.635 2°56.018 113.9 0.1 209 -999
2012-02-21 07:23:57 51°13.635 2°56.018 113.1 0.1 176 7.3
2012-02-21 07:24:02 51°13.635 2°56.018 112.1 0.1 202 -999
2012-02-21 07:24:07 51°13.635 2°56.018 111.1 0.1 194 -999
2012-02-21 07:24:11 51°13.634 2°56.018 110.2 0.1 207 7.3
2012-02-21 07:24:17 51°13.634 2°56.017 109.4 0.1 239 -999
2012-02-21 07:24:22 51°13.634 2°56.017 108.4 0.1 270 -999
2012-02-21 07:24:27 51°13.634 2°56.016 107.6 0.6 278 -999
2012-02-21 07:24:32 51°13.635 2°56.013 107.3 1.2 287 -999
2012-02-21 07:24:37 51°13.636 2°56.01 107.3 1.7 286 7.4
2012-02-21 07:24:42 51°13.637 2°56.005 107.4 2.3 289 -999
2012-02-21 07:24:47 51°13.638 2°55.999 107.9 2.9 289 -999
2012-02-21 07:24:52 51°13.64 2°55.992 108 3.3 290 -999
2012-02-21 07:24:57 51°13.641 2°55.984 107.8 3.8 288 -999
2012-02-21 07:25:02 51°13.643 2°55.976 108.1 4.1 289 -999
2012-02-21 07:25:07 51°13.645 2°55.966 108.3 4.3 288 -999
2012-02-21 07:25:12 51°13.647 2°55.957 108.7 4.6 290 -999
2012-02-21 07:25:17 51°13.649 2°55.947 109.2 4.7 290 -999
2012-02-21 07:25:22 51°13.652 2°55.937 109.7 4.9 291 -999
2012-02-21 07:25:27 51°13.654 2°55.927 110.4 5.1 289 -999
2012-02-21 07:25:32 51°13.657 2°55.916 111.1 5.1 291 -999
2012-02-21 07:25:37 51°13.659 2°55.906 111.9 5.2 292 -999
2012-02-21 07:25:42 51°13.662 2°55.895 112.6 5.3 293 -999
2012-02-21 07:25:47 51°13.665 2°55.884 113.7 5.3 293 -999
2012-02-21 07:25:52 51°13.668 2°55.874 114.8 5.3 294 -999
2012-02-21 07:25:57 51°13.671 2°55.863 115.9 5.3 295 -999
2012-02-21 07:26:02 51°13.674 2°55.852 117.2 5.3 296 -999
2012-02-21 07:26:07 51°13.678 2°55.842 118.9 5.4 298 -999
2012-02-21 07:26:12 51°13.681 2°55.831 120.2 5.3 298 -999
2012-02-21 07:26:17 51°13.685 2°55.821 121.7 5.3 300 -999
2012-02-21 07:26:22 51°13.689 2°55.811 123.5 5.3 301 -999
2012-02-21 07:26:27 51°13.693 2°55.802 124.8 5.3 303 -999
2012-02-21 07:26:32 51°13.697 2°55.792 126.4 5.2 304 -999
2012-02-21 07:26:37 51°13.701 2°55.783 128 5.2 307 -999
2012-02-21 07:26:42 51°13.705 2°55.774 129.6 5.1 307 -999
2012-02-21 07:26:47 51°13.71 2°55.766 131.5 5.1 309 -999
2012-02-21 07:26:52 51°13.714 2°55.757 132.9 5 311 -999
2012-02-21 07:26:57 51°13.719 2°55.749 134.4 5 313 -999
2012-02-21 07:27:02 51°13.724 2°55.741 136.1 5 314 -999
2012-02-21 07:27:07 51°13.729 2°55.733 138 5 316 -999
2012-02-21 07:27:12 51°13.734 2°55.726 140.2 5 319 -999
2012-02-21 07:27:17 51°13.739 2°55.719 142.2 5.1 321 -999
2012-02-21 07:27:22 51°13.745 2°55.712 144.3 5.2 322 -999
2012-02-21 07:27:27 51°13.751 2°55.705 146 5.2 324 -999
2012-02-21 07:27:32 51°13.757 2°55.699 147.6 5.3 325 -999
2012-02-21 07:27:37 51°13.764 2°55.693 148.9 5.4 328 -999
2012-02-21 07:27:42 51°13.77 2°55.686 150.1 5.4 329 -999
2012-02-21 07:27:47 51°13.777 2°55.68 151.1 5.5 330 -999
2012-02-21 07:27:52 51°13.783 2°55.675 151.8 5.5 332 -999
2012-02-21 07:27:57 51°13.79 2°55.669 152.5 5.5 332 -999
2012-02-21 07:28:02 51°13.797 2°55.663 153 5.6 333 -999
2012-02-21 07:28:07 51°13.804 2°55.657 153.4 5.8 333 -999
2012-02-21 07:28:12 51°13.812 2°55.652 153.9 5.8 333 -999
2012-02-21 07:28:17 51°13.819 2°55.646 154.1 5.8 333 -999
2012-02-21 07:28:22 51°13.826 2°55.64 154.7 5.7 334 -999
2012-02-21 07:28:27 51°13.833 2°55.635 155.4 5.5 335 -999
2012-02-21 07:28:32 51°13.839 2°55.631 156.7 5.3 336 -999
2012-02-21 07:28:37 51°13.846 2°55.626 158.3 5.1 337 -999
2012-02-21 07:28:42 51°13.852 2°55.623 159.9 5 339 -999
2012-02-21 07:28:47 51°13.859 2°55.619 162.1 4.9 341 -999
2012-02-21 07:28:52 51°13.866 2°55.616 164.4 4.9 344 -999
2012-02-21 07:28:57 51°13.872 2°55.613 167 4.9 346 -999
2012-02-21 07:29:02 51°13.878 2°55.611 169.9 4.8 348 -999
2012-02-21 07:29:07 51°13.885 2°55.609 172.8 4.7 351 -999
2012-02-21 07:29:12 51°13.891 2°55.608 176 4.7 354 -999
2012-02-21 07:29:17 51°13.898 2°55.607 179 4.6 357 -999
2012-02-21 07:29:22 51°13.904 2°55.607 182.3 4.4 359 -999
2012-02-21 07:29:27 51°13.91 2°55.608 185.4 4.3 3 -999
2012-02-21 07:29:32 51°13.915 2°55.609 188.4 4.2 6 -999
2012-02-21 07:29:37 51°13.921 2°55.61 191.2 4.2 9 -999
2012-02-21 07:29:42 51°13.927 2°55.612 194 4 11 -999
2012-02-21 07:29:47 51°13.932 2°55.613 196.7 3.8 12 -999
2012-02-21 07:29:52 51°13.937 2°55.615 199.2 3.7 15 -999
2012-02-21 07:29:57 51°13.942 2°55.618 201.8 3.7 18 -999
2012-02-21 07:30:02 51°13.946 2°55.62 204.4 3.6 20 -999
2012-02-21 07:30:07 51°13.951 2°55.623 206.9 3.5 22 -999
2012-02-21 07:30:12 51°13.955 2°55.626 209.4 3.4 24 -999
2012-02-21 07:30:17 51°13.959 2°55.63 212 3.3 27 -999
2012-02-21 07:30:22 51°13.963 2°55.633 214.7 3.1 29 -999
2012-02-21 07:30:27 51°13.966 2°55.636 217.3 3 31 -999
2012-02-21 07:30:32 51°13.97 2°55.64 219.4 2.9 34 -999
2012-02-21 07:30:37 51°13.973 2°55.643 221 2.6 33 -999
2012-02-21 07:30:42 51°13.975 2°55.645 223.6 2.3 32 -999
2012-02-21 07:30:47 51°13.977 2°55.648 225.9 2 33 -999
2012-02-21 07:30:52 51°13.979 2°55.65 228.4 1.5 32 -999
2012-02-21 07:30:57 51°13.98 2°55.651 231.3 1.1 33 -999
2012-02-21 07:31:02 51°13.981 2°55.651 235 0.6 18 -999
2012-02-21 07:31:07 51°13.982 2°55.651 239.5 0.4 338 -999
2012-02-21 07:31:12 51°13.982 2°55.649 244.3 0.6 292 -999
2012-02-21 07:31:17 51°13.982 2°55.648 249.8 0.8 279 -999
2012-02-21 07:31:22 51°13.983 2°55.646 255.8 1.2 281 -999
2012-02-21 07:31:27 51°13.983 2°55.642 261.9 1.6 277 -999
2012-02-21 07:31:32 51°13.983 2°55.637 268.6 2.1 282 -999
2012-02-21 07:31:37 51°13.984 2°55.632 276.1 2.4 286 -999
2012-02-21 07:31:42 51°13.986 2°55.626 283.8 2.8 294 -999
2012-02-21 07:31:47 51°13.988 2°55.62 291.3 3.3 296 -999
2012-02-21 07:31:52 51°13.991 2°55.613 298.5 3.8 305 -999
2012-02-21 07:31:57 51°13.995 2°55.605 303.3 4.6 304 -999
2012-02-21 07:32:02 51°13.999 2°55.596 305.8 5.1 308 -999
2012-02-21 07:32:07 51°14.004 2°55.586 308.3 5.8 309 -999
2012-02-21 07:32:12 51°14.01 2°55.576 310.5 6.2 310 -999
2012-02-21 07:32:17 51°14.016 2°55.566 313.3 6.7 315 -999
2012-02-21 07:32:22 51°14.023 2°55.554 314.6 7.2 314 -999
2012-02-21 07:32:27 51°14.031 2°55.543 316.4 7.6 318 -999
2012-02-21 07:32:32 51°14.039 2°55.531 318.8 8 318 -999
2012-02-21 07:32:37 51°14.048 2°55.52 321.2 8.3 322 -999
2012-02-21 07:32:42 51°14.057 2°55.508 322.3 8.6 321 -999
2012-02-21 07:32:47 51°14.067 2°55.496 323.5 8.9 323 -999
2012-02-21 07:32:52 51°14.077 2°55.485 325.2 9 324 -999
2012-02-21 07:32:57 51°14.088 2°55.473 326.1 9.2 326 -999
2012-02-21 07:33:02 51°14.099 2°55.461 326.7 9.5 325 -999
2012-02-21 07:33:07 51°14.11 2°55.449 327.5 9.7 327 -999
2012-02-21 07:33:12 51°14.121 2°55.437 328.2 9.8 326 -999
2012-02-21 07:33:17 51°14.133 2°55.426 328.4 9.9 328 -999
2012-02-21 07:33:22 51°14.145 2°55.413 328.7 10 328 -999
2012-02-21 07:33:27 51°14.157 2°55.401 329.4 10.1 329 -999
2012-02-21 07:33:32 51°14.169 2°55.389 330 10.2 328 -999
2012-02-21 07:33:37 51°14.181 2°55.377 329.8 10.3 328 -999
2012-02-21 07:33:42 51°14.193 2°55.366 329.9 10.3 329 -999
2012-02-21 07:33:47 51°14.206 2°55.355 331.2 10.3 330 -999
2012-02-21 07:33:52 51°14.218 2°55.343 331.7 10.3 330 -999
2012-02-21 07:33:57 51°14.23 2°55.331 331.4 10.4 329 -999
2012-02-21 07:34:02 51°14.243 2°55.32 331.5 10.5 331 -999
2012-02-21 07:34:07 51°14.256 2°55.308 331.8 10.6 330 -999
2012-02-21 07:34:12 51°14.268 2°55.296 331.8 10.6 330 -999
2012-02-21 07:34:17 51°14.281 2°55.285 331.6 10.6 330 -999
2012-02-21 07:34:22 51°14.294 2°55.273 331 10.7 329 -999
2012-02-21 07:34:27 51°14.307 2°55.262 331.2 10.8 331 -999
2012-02-21 07:34:32 51°14.32 2°55.249 331.8 10.9 329 -999
2012-02-21 07:34:37 51°14.333 2°55.238 331.5 11 330 -999
2012-02-21 07:34:42 51°14.346 2°55.226 331.4 10.9 331 -999
2012-02-21 07:34:47 51°14.359 2°55.214 331.6 10.9 331 -999
2012-02-21 07:34:52 51°14.373 2°55.201 331.3 11.1 329 -999
2012-02-21 07:34:57 51°14.386 2°55.189 330.4 11.1 328 -999
2012-02-21 07:35:02 51°14.399 2°55.176 330.3 11.1 329 -999
2012-02-21 07:35:07 51°14.412 2°55.162 329.7 11.3 327 -999
2012-02-21 07:35:12 51°14.425 2°55.148 328.9 11.2 327 -999
2012-02-21 07:35:17 51°14.438 2°55.135 328.5 11.2 327 -999
2012-02-21 07:35:22 51°14.451 2°55.121 327.6 11.4 325 -999
2012-02-21 07:35:27 51°14.464 2°55.106 326.3 11.4 324 -999
2012-02-21 07:35:32 51°14.476 2°55.091 325.2 11.4 323 10.2
2012-02-21 07:35:37 51°14.489 2°55.075 324.6 11.6 323 10.1
2012-02-21 07:35:42 51°14.502 2°55.06 324.5 11.7 324 -999
2012-02-21 07:35:47 51°14.515 2°55.044 325.2 11.8 323 10
2012-02-21 07:35:51 51°14.525 2°55.032 325.6 11.7 322 10
2012-02-21 07:35:56 51°14.538 2°55.016 325.6 11.8 320 10.6
2012-02-21 07:36:01 51°14.55 2°54.997 324.6 12 317 11
2012-02-21 07:36:06 51°14.563 2°54.979 323.8 12.2 317 11.1
2012-02-21 07:36:11 51°14.575 2°54.961 323.4 12.2 318 11.2
2012-02-21 07:36:15 51°14.586 2°54.947 325.5 12.2 320 11.1
2012-02-21 07:36:20 51°14.598 2°54.93 326.9 12.2 321 11.1
2012-02-21 07:36:25 51°14.612 2°54.913 328.4 12.2 322 11.1
2012-02-21 07:36:30 51°14.625 2°54.897 329.7 12.3 322 11
2012-02-21 07:36:35 51°14.639 2°54.879 330.1 12.3 321 10.9
2012-02-21 07:36:39 51°14.649 2°54.866 329 12.3 320 10.9
2012-02-21 07:36:44 51°14.662 2°54.848 327.8 12.3 320 10.9
2012-02-21 07:36:49 51°14.676 2°54.831 327.7 12.4 321 11
2012-02-21 07:36:54 51°14.689 2°54.815 328.7 12.2 324 10.8
2012-02-21 07:36:59 51°14.703 2°54.8 330.9 12.2 325 10.7
2012-02-21 07:37:03 51°14.715 2°54.788 332 12.2 325 10.7
2012-02-21 07:37:08 51°14.729 2°54.773 332.7 12.1 327 10.8
2012-02-21 07:37:14 51°14.746 2°54.756 333.7 12.1 329 10.7
2012-02-21 07:37:19 51°14.76 2°54.741 334 12.2 326 11
2012-02-21 07:37:23 51°14.771 2°54.729 332.7 12.2 325 11
2012-02-21 07:37:28 51°14.785 2°54.713 330.9 12.2 325 11.2
2012-02-21 07:37:34 51°14.802 2°54.695 330.8 12.2 325 -999
2012-02-21 07:37:39 51°14.815 2°54.679 330.4 12.2 325 -999
2012-02-21 07:37:45 51°14.832 2°54.66 330.1 12.2 324 -999
2012-02-21 07:37:51 51°14.849 2°54.642 330 12.2 325 11.1
2012-02-21 07:37:56 51°14.862 2°54.626 330.1 12.2 325 -999
2012-02-21 07:38:02 51°14.879 2°54.609 330.5 12.2 327 -999
2012-02-21 07:38:07 51°14.894 2°54.594 331.2 12.2 328 -999
2012-02-21 07:38:12 51°14.908 2°54.579 332.1 12.2 328 -999
2012-02-21 07:38:17 51°14.923 2°54.566 333.1 12.1 330 -999
2012-02-21 07:38:22 51°14.938 2°54.553 334.6 12.2 331 -999
2012-02-21 07:38:27 51°14.952 2°54.54 335.9 12.2 332 -999
2012-02-21 07:38:32 51°14.967 2°54.527 336.5 12.1 331 10.9
2012-02-21 07:38:37 51°14.982 2°54.515 336.1 12 332 11.1
2012-02-21 07:38:42 51°14.996 2°54.502 335.5 11.9 331 11
2012-02-21 07:38:47 51°15.011 2°54.488 335.1 12.1 330 10.9
2012-02-21 07:38:51 51°15.022 2°54.477 334.1 12.3 330 10.9
2012-02-21 07:38:56 51°15.037 2°54.464 334 12.1 329 10.9
2012-02-21 07:39:01 51°15.051 2°54.449 333.7 12 327 10.5
2012-02-21 07:39:05 51°15.062 2°54.437 331.3 12.2 325 10.7
2012-02-21 07:39:10 51°15.076 2°54.422 329.5 12.1 325 10.8
2012-02-21 07:39:15 51°15.09 2°54.406 329.5 12.1 324 10.6
2012-02-21 07:39:19 51°15.1 2°54.393 328.7 12.2 326 10.6
2012-02-21 07:39:24 51°15.114 2°54.378 329.6 12.2 323 10.7
2012-02-21 07:39:29 51°15.128 2°54.363 330 12.1 325 10.6
2012-02-21 07:39:34 51°15.142 2°54.348 331.3 12.1 325 10.7
2012-02-21 07:39:39 51°15.156 2°54.332 332.5 12.1 326 10.5
2012-02-21 07:39:43 51°15.167 2°54.321 334.2 12 327 10.6
2012-02-21 07:39:48 51°15.181 2°54.307 335.8 12 329 10.7
2012-02-21 07:39:54 51°15.198 2°54.294 337.7 11.7 333 10.4
2012-02-21 07:39:59 51°15.213 2°54.283 340.5 11.6 336 10.4
2012-02-21 07:40:03 51°15.225 2°54.275 344.1 11.6 339 10.1
2012-02-21 07:40:08 51°15.24 2°54.265 346.7 11.6 338 10.1
2012-02-21 07:40:14 51°15.258 2°54.254 347.4 11.6 337 9.8
2012-02-21 07:40:19 51°15.273 2°54.245 346.8 11.6 336 9.4
2012-02-21 07:40:23 51°15.285 2°54.235 344.6 11.7 334 9.4
2012-02-21 07:40:28 51°15.299 2°54.225 342.6 11.7 333 9.6
2012-02-21 07:40:34 51°15.316 2°54.21 341.3 11.7 334 9.4
2012-02-21 07:40:39 51°15.331 2°54.199 341.2 11.7 334 9.4
2012-02-21 07:40:43 51°15.343 2°54.19 341.3 11.7 335 9.3
2012-02-21 07:40:48 51°15.357 2°54.181 343 11.6 338 9.3
2012-02-21 07:40:54 51°15.375 2°54.168 344.1 11.6 338 9.4
2012-02-21 07:40:59 51°15.39 2°54.16 346.2 11.5 343 9.4
2012-02-21 07:41:03 51°15.403 2°54.155 349 11.5 343 9.3
2012-02-21 07:41:08 51°15.418 2°54.148 350.9 11.5 348 9.5
2012-02-21 07:41:14 51°15.437 2°54.142 353.8 11.5 348 9.4
2012-02-21 07:41:19 51°15.453 2°54.138 356.1 11.5 351 9.4
2012-02-21 07:41:23 51°15.465 2°54.136 358.6 11.4 354 9.4
2012-02-21 07:41:28 51°15.481 2°54.134 0.8 11.4 356 9.7
2012-02-21 07:41:34 51°15.5 2°54.131 2.1 11.5 355 9.5
2012-02-21 07:41:39 51°15.516 2°54.131 3.1 11.3 358 9.4
2012-02-21 07:41:43 51°15.528 2°54.131 4.5 11.3 359 9.8
2012-02-21 07:41:48 51°15.544 2°54.131 6 11.3 -999 9.7
2012-02-21 07:41:54 51°15.563 2°54.132 7.4 11.3 2 9.5
2012-02-21 07:41:59 51°15.579 2°54.134 8.8 11.3 4 9.8
2012-02-21 07:42:03 51°15.591 2°54.135 10.3 11.2 6 9.7
2012-02-21 07:42:08 51°15.607 2°54.138 11.6 11.2 7 9.7
2012-02-21 07:42:14 51°15.625 2°54.144 13.5 11.3 11 9.8
2012-02-21 07:42:19 51°15.64 2°54.149 16.1 11.2 12 9.5
2012-02-21 07:42:23 51°15.652 2°54.154 18.3 11.2 13 9.7
2012-02-21 07:42:28 51°15.667 2°54.16 19.2 11.2 16 9.9
2012-02-21 07:42:34 51°15.685 2°54.167 20.3 11.2 14 9.7
2012-02-21 07:42:39 51°15.7 2°54.176 21 11.1 18 9.8
2012-02-21 07:42:43 51°15.712 2°54.181 21.2 11.2 16 9.8
2012-02-21 07:42:48 51°15.727 2°54.187 21.9 11.2 17 9.9
2012-02-21 07:42:54 51°15.744 2°54.196 22 11.2 16 9.9
2012-02-21 07:42:59 51°15.759 2°54.203 22.1 11.2 17 9.9
2012-02-21 07:43:03 51°15.771 2°54.208 21.9 11.2 17 10
2012-02-21 07:43:09 51°15.789 2°54.217 22.4 11.1 17 9.8
2012-02-21 07:43:14 51°15.804 2°54.225 21.9 11.3 17 9.9
2012-02-21 07:43:19 51°15.819 2°54.231 21.5 11.3 15 9.7
2012-02-21 07:43:23 51°15.831 2°54.235 19.7 11.3 13 10
2012-02-21 07:43:29 51°15.85 2°54.243 19 11.3 14 9.9
2012-02-21 07:43:34 51°15.865 2°54.247 18.2 11.3 11 9.8
2012-02-21 07:43:39 51°15.88 2°54.253 17.1 11.3 11 9.9
2012-02-21 07:43:43 51°15.893 2°54.256 16.1 11.3 11 9.9
2012-02-21 07:43:48 51°15.908 2°54.261 16.5 11.3 11 10.3
2012-02-21 07:43:54 51°15.926 2°54.267 17 11.2 13 10.1
2012-02-21 07:43:59 51°15.942 2°54.273 18 11.3 12 10.1
2012-02-21 07:44:03 51°15.954 2°54.276 17.5 11.2 11 9.8
2012-02-21 07:44:08 51°15.969 2°54.282 17.9 11.2 12 10.2
2012-02-21 07:44:13 51°15.984 2°54.287 17.6 11.1 13 10.2
2012-02-21 07:44:19 51°16.002 2°54.294 18.4 11.2 13 10.2
2012-02-21 07:44:23 51°16.015 2°54.299 19.3 11.1 15 10.2
2012-02-21 07:44:28 51°16.029 2°54.305 19.5 11 13 10.3
2012-02-21 07:44:34 51°16.046 2°54.31 19.1 10.2 11 10.4
2012-02-21 07:44:39 51°16.059 2°54.314 17 9.4 10 10.4
2012-02-21 07:44:43 51°16.069 2°54.315 15.3 8.9 7 10.5
2012-02-21 07:44:48 51°16.08 2°54.318 12.8 8.1 5 10.5
2012-02-21 07:44:54 51°16.092 2°54.317 10.2 7.5 -999 10.5
2012-02-21 07:44:59 51°16.102 2°54.317 8 7 359 10.5
2012-02-21 07:45:03 51°16.109 2°54.317 6.2 6.6 356 10.4
2012-02-21 07:45:08 51°16.118 2°54.315 4.6 6.2 356 10.4
2012-02-21 07:45:14 51°16.128 2°54.314 3.8 6 355 10.5
2012-02-21 07:45:19 51°16.136 2°54.313 3.3 5.8 353 10.8
2012-02-21 07:45:23 51°16.142 2°54.312 3 5.7 354 10.6
2012-02-21 07:45:28 51°16.15 2°54.311 3.5 5.5 355 10.6
2012-02-21 07:45:34 51°16.159 2°54.311 4.5 5.4 358 10.8
2012-02-21 07:45:39 51°16.166 2°54.31 5.7 5.3 359 10.8
2012-02-21 07:45:43 51°16.172 2°54.31 7.1 5.3 1 10.7
2012-02-21 07:45:49 51°16.181 2°54.31 8.3 5.2 2 10.6
2012-02-21 07:45:54 51°16.188 2°54.311 10 5.2 4 10.7
2012-02-21 07:45:59 51°16.195 2°54.312 11.3 5.2 4 10.7
2012-02-21 07:46:03 51°16.2 2°54.313 12.7 5.1 7 10.8
2012-02-21 07:46:09 51°16.209 2°54.314 14.2 5.1 7 10.8
2012-02-21 07:46:14 51°16.216 2°54.317 15.4 5.1 9 10.7
2012-02-21 07:46:19 51°16.223 2°54.319 16.8 4.9 11 10.6
2012-02-21 07:46:23 51°16.228 2°54.321 18.5 4.6 13 10.9
2012-02-21 07:46:28 51°16.233 2°54.322 19.6 4.2 11 10.9
2012-02-21 07:46:34 51°16.24 2°54.324 20.1 3.8 11 10.9
2012-02-21 07:46:39 51°16.244 2°54.326 20.5 3.4 10 10.9
2012-02-21 07:46:43 51°16.248 2°54.326 20.4 3 8 10.8
2012-02-21 07:46:48 51°16.251 2°54.328 20.4 2.5 12 10.9
2012-02-21 07:46:54 51°16.255 2°54.329 20.5 2.1 10 11
2012-02-21 07:46:59 51°16.257 2°54.329 20.3 1.7 11 10.9
2012-02-21 07:47:03 51°16.258 2°54.329 19.5 1.3 358 10.9
2012-02-21 07:47:09 51°16.26 2°54.329 18.2 0.8 4 10.9
2012-02-21 07:47:14 51°16.26 2°54.329 16.7 0.5 346 10.9
2012-02-21 07:47:19 51°16.26 2°54.328 15.6 0.3 306 10.8
2012-02-21 07:47:23 51°16.26 2°54.327 14.6 0.4 286 10.9
2012-02-21 07:47:28 51°16.26 2°54.327 14.1 0.3 288 11
2012-02-21 07:47:34 51°16.261 2°54.326 13.4 0.3 302 11
2012-02-21 07:47:39 51°16.261 2°54.326 13.1 0.2 318 11
2012-02-21 07:47:43 51°16.261 2°54.325 11.8 0.3 302 11
2012-02-21 07:47:49 51°16.262 2°54.324 11 0.4 303 10.9
2012-02-21 07:47:54 51°16.262 2°54.324 9.7 0.4 301 10.9
2012-02-21 07:47:59 51°16.262 2°54.323 8.7 0.4 302 11.1
2012-02-21 07:48:03 51°16.262 2°54.322 7.3 0.5 288 11.1
2012-02-21 07:48:08 51°16.262 2°54.322 5.9 0.2 335 11
2012-02-21 07:48:14 51°16.263 2°54.322 4.4 0.3 300 10.9
2012-02-21 07:48:19 51°16.263 2°54.321 3.6 0.3 301 11.2
2012-02-21 07:48:23 51°16.263 2°54.32 2.4 0.3 296 11.2
2012-02-21 07:48:28 51°16.263 2°54.32 1.2 0.3 309 11
2012-02-21 07:48:34 51°16.264 2°54.319 0.2 0.3 307 11
2012-02-21 07:48:39 51°16.264 2°54.319 359 0.3 309 10.8
2012-02-21 07:48:43 51°16.264 2°54.318 357.7 0.3 316 10.9
2012-02-21 07:48:48 51°16.265 2°54.317 356.5 0.5 293 11
2012-02-21 07:48:54 51°16.265 2°54.316 355.1 0.5 289 10.9
2012-02-21 07:48:59 51°16.265 2°54.315 353.4 0.5 298 10.9
2012-02-21 07:49:03 51°16.265 2°54.314 351.7 0.5 295 10.9
2012-02-21 07:49:09 51°16.266 2°54.314 350.2 0.5 289 11
2012-02-21 07:49:14 51°16.266 2°54.313 348.9 0.4 293 11
2012-02-21 07:49:19 51°16.266 2°54.311 347.7 0.5 288 11.1
2012-02-21 07:49:23 51°16.266 2°54.31 345.7 0.5 286 11
2012-02-21 07:49:28 51°16.266 2°54.309 344.1 0.7 279 11.1
2012-02-21 07:49:34 51°16.266 2°54.307 343.4 0.6 284 11.1
2012-02-21 07:49:39 51°16.266 2°54.306 341.9 0.5 279 11.2
2012-02-21 07:49:43 51°16.266 2°54.306 339.8 0.5 287 11.1
2012-02-21 07:49:49 51°16.266 2°54.303 338.3 0.6 280 11.1
2012-02-21 07:49:54 51°16.266 2°54.302 337.1 0.5 274 11.2
2012-02-21 07:49:59 51°16.266 2°54.302 336.1 0.5 274 10.9
2012-02-21 07:50:03 51°16.267 2°54.301 334.5 0.5 270 10.7
2012-02-21 07:50:09 51°16.267 2°54.3 332.9 0.4 266 10.9
2012-02-21 07:50:14 51°16.267 2°54.299 331.8 0.4 265 11.1
2012-02-21 07:50:19 51°16.267 2°54.298 330.4 0.4 274 11.1
2012-02-21 07:50:23 51°16.266 2°54.297 329.6 0.4 271 10.9
2012-02-21 07:50:29 51°16.266 2°54.295 328.6 0.4 264 10.8
2012-02-21 07:50:34 51°16.266 2°54.294 327.8 0.5 264 11
2012-02-21 07:50:39 51°16.266 2°54.293 326.2 0.5 269 11.1
2012-02-21 07:50:43 51°16.266 2°54.293 324.8 0.5 269 10.9
2012-02-21 07:50:48 51°16.266 2°54.291 323.8 0.5 262 11
2012-02-21 07:50:54 51°16.266 2°54.29 323 0.5 257 10.9
2012-02-21 07:50:59 51°16.266 2°54.289 322.1 0.4 253 10.9
2012-02-21 07:51:03 51°16.266 2°54.288 321.3 0.4 259 11
2012-02-21 07:51:08 51°16.265 2°54.287 320.5 0.5 254 11
2012-02-21 07:51:14 51°16.265 2°54.286 319.9 0.4 267 11
2012-02-21 07:51:19 51°16.265 2°54.285 318.9 0.5 258 11.1
2012-02-21 07:51:23 51°16.265 2°54.284 318.2 0.4 253 11
2012-02-21 07:51:28 51°16.264 2°54.283 317.8 0.4 248 11
2012-02-21 07:51:34 51°16.264 2°54.282 317.2 0.4 241 10.9
2012-02-21 07:51:39 51°16.264 2°54.282 316.5 0.4 245 11
2012-02-21 07:51:43 51°16.264 2°54.281 315.9 0.3 249 11
2012-02-21 07:51:48 51°16.264 2°54.28 315.3 0.4 250 11
2012-02-21 07:51:54 51°16.263 2°54.278 315.1 0.4 254 11
2012-02-21 07:51:59 51°16.263 2°54.276 314.4 0.4 254 10.9
2012-02-21 07:52:03 51°16.263 2°54.276 314 0.4 254 10.9
2012-02-21 07:52:08 51°16.263 2°54.275 313.5 0.4 250 11.1
2012-02-21 07:52:14 51°16.263 2°54.275 313.3 0.4 249 11
2012-02-21 07:52:19 51°16.263 2°54.274 313.1 0.3 250 10.9
2012-02-21 07:52:23 51°16.263 2°54.273 312.6 0.3 251 11
2012-02-21 07:52:29 51°16.263 2°54.272 312.2 0.4 260 11
2012-02-21 07:52:34 51°16.262 2°54.272 311.9 0.4 242 11
2012-02-21 07:52:39 51°16.262 2°54.271 311.5 0.2 243 11
2012-02-21 07:52:43 51°16.262 2°54.27 311.4 0.4 249 11
2012-02-21 07:52:49 51°16.262 2°54.269 311.1 0.4 257 11
2012-02-21 07:52:54 51°16.261 2°54.268 311.1 0.4 243 11
2012-02-21 07:52:59 51°16.261 2°54.267 311.1 0.3 242 10.9
2012-02-21 07:53:03 51°16.261 2°54.267 311.2 0.3 237 11
2012-02-21 07:53:08 51°16.261 2°54.266 311.3 0.3 253 11
2012-02-21 07:53:14 51°16.26 2°54.265 311.5 0.4 250 11
2012-02-21 07:53:19 51°16.26 2°54.264 311.6 0.3 236 11
2012-02-21 07:53:23 51°16.26 2°54.264 311.8 0.4 251 11.1
2012-02-21 07:53:28 51°16.26 2°54.264 312.2 0.4 239 11
2012-02-21 07:53:33 51°16.26 2°54.264 312.4 0.2 199 11
2012-02-21 07:53:39 51°16.26 2°54.262 312.9 0.3 273 11
2012-02-21 07:53:43 51°16.26 2°54.261 313.2 0.7 289 11.1
2012-02-21 07:53:49 51°16.261 2°54.258 313.6 1.1 297 10.9
2012-02-21 07:53:54 51°16.262 2°54.255 313.9 1.6 301 10.8
2012-02-21 07:53:59 51°16.264 2°54.251 314.2 2.3 302 10.9
2012-02-21 07:54:03 51°16.266 2°54.246 313.9 3 303 11
2012-02-21 07:54:08 51°16.268 2°54.24 313.3 3.5 304 10.9
2012-02-21 07:54:14 51°16.272 2°54.231 312.4 4.1 302 10.8
2012-02-21 07:54:19 51°16.276 2°54.223 311.3 4.7 303 11
2012-02-21 07:54:23 51°16.279 2°54.215 310 5.3 302 11.2
2012-02-21 07:54:29 51°16.284 2°54.202 310 6 303 11.1
2012-02-21 07:54:34 51°16.289 2°54.189 309.7 6.5 302 11.1
2012-02-21 07:54:39 51°16.294 2°54.177 309.6 6.8 303 11.2
2012-02-21 07:54:43 51°16.298 2°54.166 310 7.2 303 11.2
2012-02-21 07:54:48 51°16.304 2°54.152 310 7.7 304 11
2012-02-21 07:54:54 51°16.312 2°54.135 310.4 8 304 11.3
2012-02-21 07:54:59 51°16.318 2°54.119 311 8.4 305 11
2012-02-21 07:55:03 51°16.324 2°54.107 311.3 8.7 305 10.9
2012-02-21 07:55:08 51°16.331 2°54.091 311.7 8.9 307 11.2
2012-02-21 07:55:14 51°16.34 2°54.071 312.6 9.2 307 11.1
2012-02-21 07:55:19 51°16.348 2°54.054 313.2 9.6 306 11.4
2012-02-21 07:55:23 51°16.354 2°54.04 313.6 9.8 307 11.5
2012-02-21 07:55:28 51°16.363 2°54.023 313.8 10 308 11.3
2012-02-21 07:55:33 51°16.372 2°54.005 314.4 10.3 309 11.3
2012-02-21 07:55:39 51°16.383 2°53.984 315.3 10.5 310 11.3
2012-02-21 07:55:43 51°16.391 2°53.969 316.5 10.8 310 11.3
2012-02-21 07:55:48 51°16.401 2°53.95 316.4 11.1 311 11.2
2012-02-21 07:55:54 51°16.413 2°53.927 316.9 11.4 312 11.4
2012-02-21 07:55:59 51°16.424 2°53.908 318.1 11.7 313 11.5
2012-02-21 07:56:03 51°16.433 2°53.894 318.8 11.7 313 11.5
2012-02-21 07:56:08 51°16.445 2°53.875 319 11.9 312 11.3
2012-02-21 07:56:14 51°16.458 2°53.852 318.4 12 312 11.5
2012-02-21 07:56:19 51°16.469 2°53.83 317.6 12.2 310 11.5
2012-02-21 07:56:23 51°16.477 2°53.813 316.1 12.3 309 11.5
2012-02-21 07:56:29 51°16.49 2°53.788 315.6 12.3 309 11.5
2012-02-21 07:56:34 51°16.5 2°53.765 314.3 12.4 306 11.4
2012-02-21 07:56:39 51°16.51 2°53.743 312.6 12.4 306 11.4
2012-02-21 07:56:43 51°16.518 2°53.725 311.9 12.5 305 11.6
2012-02-21 07:56:48 51°16.528 2°53.703 311.5 12.5 306 11.6
2012-02-21 07:56:54 51°16.54 2°53.676 311.4 12.5 306 11.5
2012-02-21 07:56:59 51°16.551 2°53.654 312 12.5 307 11.6
2012-02-21 07:57:03 51°16.559 2°53.636 312.9 12.4 308 11.5
2012-02-21 07:57:09 51°16.572 2°53.611 313.6 12.5 309 11.5
2012-02-21 07:57:14 51°16.584 2°53.589 314.4 12.4 310 11.5
2012-02-21 07:57:19 51°16.595 2°53.569 315.5 12.4 311 11.6
2012-02-21 07:57:23 51°16.604 2°53.552 316.5 12.4 312 11.4
2012-02-21 07:57:28 51°16.616 2°53.532 317.6 12.4 312 11.6
2012-02-21 07:57:34 51°16.629 2°53.508 318.5 12.3 313 11.5
2012-02-21 07:57:39 51°16.642 2°53.488 318.7 12.4 312 11.5
2012-02-21 07:57:43 51°16.651 2°53.472 318.9 12.5 313 11.6
2012-02-21 07:57:48 51°16.663 2°53.452 319.4 12.4 313 11.5
2012-02-21 07:57:54 51°16.677 2°53.429 319.4 12.4 313 11.4
2012-02-21 07:57:59 51°16.689 2°53.409 319.2 12.4 313 11.3
2012-02-21 07:58:03 51°16.698 2°53.392 318.8 12.4 313 11.3
2012-02-21 07:58:08 51°16.709 2°53.372 318.4 12.4 312 11.2
2012-02-21 07:58:13 51°16.721 2°53.352 318 12.4 312 11.1
2012-02-21 07:58:19 51°16.734 2°53.328 317.7 12.3 311 11.2
2012-02-21 07:58:23 51°16.743 2°53.312 317.5 12.3 312 11.1
2012-02-21 07:58:29 51°16.757 2°53.287 317.3 12.3 311 11.1
2012-02-21 07:58:34 51°16.768 2°53.266 317 12.3 311 11.1
2012-02-21 07:58:39 51°16.779 2°53.246 316.6 12.3 311 11
2012-02-21 07:58:43 51°16.788 2°53.229 316.8 12.3 310 10.8
2012-02-21 07:58:48 51°16.798 2°53.208 315.4 12.3 308 10.6
2012-02-21 07:58:54 51°16.811 2°53.182 313.7 12.3 307 10.7
2012-02-21 07:58:59 51°16.821 2°53.161 313.1 12.2 307 10.4
2012-02-21 07:59:03 51°16.829 2°53.144 312.3 12.2 306 9.8
2012-02-21 07:59:09 51°16.841 2°53.117 311.4 12.2 305 9.4
2012-02-21 07:59:14 51°16.85 2°53.095 310.7 12.1 305 9
2012-02-21 07:59:19 51°16.86 2°53.073 310.3 12 304 8.8
2012-02-21 07:59:23 51°16.867 2°53.055 309.4 11.9 305 8.4
2012-02-21 07:59:29 51°16.878 2°53.03 310 11.9 305 8.4
2012-02-21 07:59:34 51°16.889 2°53.009 311.6 11.8 308 8.3
2012-02-21 07:59:39 51°16.898 2°52.988 312.4 11.9 307 8.3
2012-02-21 07:59:43 51°16.907 2°52.972 313.6 11.9 308 8.5
2012-02-21 07:59:48 51°16.917 2°52.951 314.2 11.8 309 8.6
2012-02-21 07:59:54 51°16.929 2°52.927 315.5 11.8 310 8.6
2012-02-21 07:59:59 51°16.94 2°52.906 315.4 12 309 8.8
2012-02-21 08:00:03 51°16.948 2°52.89 315.5 12.1 310 8.9
2012-02-21 08:00:08 51°16.959 2°52.869 316.2 12.1 310 9.1
2012-02-21 08:00:14 51°16.972 2°52.845 316.5 12.1 310 9
2012-02-21 08:00:19 51°16.983 2°52.824 316.4 12.2 311 9.3
2012-02-21 08:00:23 51°16.992 2°52.808 316.8 12.1 311 9.4
2012-02-21 08:00:28 51°17.003 2°52.788 316.5 12.1 310 9.4
2012-02-21 08:00:34 51°17.016 2°52.763 316.4 12.2 311 9.6
2012-02-21 08:00:39 51°17.027 2°52.743 317.2 12.2 313 9.8
2012-02-21 08:00:43 51°17.037 2°52.728 318.9 12 315 9.8
2012-02-21 08:00:49 51°17.052 2°52.706 321.7 12.1 318 10.1
2012-02-21 08:00:54 51°17.064 2°52.689 324.2 12 320 9.8
2012-02-21 08:00:59 51°17.077 2°52.672 325.2 12 319 9.8
2012-02-21 08:01:03 51°17.087 2°52.659 326.5 11.9 322 9.3
2012-02-21 08:01:08 51°17.1 2°52.643 328.3 11.9 322 9.7
2012-02-21 08:01:14 51°17.116 2°52.624 329.4 11.8 323 9.4
2012-02-21 08:01:19 51°17.129 2°52.609 329.6 11.8 324 9.3
2012-02-21 08:01:23 51°17.14 2°52.596 329.4 11.8 323 9.7
2012-02-21 08:01:29 51°17.156 2°52.578 330 11.8 324 9.5
2012-02-21 08:01:34 51°17.169 2°52.561 329.9 11.9 323 9.6
2012-02-21 08:01:39 51°17.181 2°52.544 328.7 12.1 319 9.8
2012-02-21 08:01:43 51°17.191 2°52.53 326.9 11.9 319 9.7
2012-02-21 08:01:49 51°17.207 2°52.51 326.3 11.9 320 9.5
2012-02-21 08:01:54 51°17.219 2°52.492 325.9 12 319 9.8
2012-02-21 08:01:59 51°17.231 2°52.475 325.4 12 318 9.9
2012-02-21 08:02:03 51°17.241 2°52.46 324.7 12 316 9.8
2012-02-21 08:02:08 51°17.253 2°52.441 323 12.1 315 10.1
2012-02-21 08:02:14 51°17.267 2°52.419 322.7 12 317 10.1
2012-02-21 08:02:19 51°17.28 2°52.401 323.2 12.1 317 10.3
2012-02-21 08:02:23 51°17.289 2°52.387 323.9 12 318 10.1
2012-02-21 08:02:28 51°17.302 2°52.369 325.3 12.1 319 10.3
2012-02-21 08:02:34 51°17.317 2°52.348 326 12.1 318 10.3
2012-02-21 08:02:39 51°17.329 2°52.33 325.6 12 318 10.3
2012-02-21 08:02:43 51°17.339 2°52.316 325.3 12 317 10.2
2012-02-21 08:02:48 51°17.351 2°52.298 324.2 12.1 317 10.4
2012-02-21 08:02:54 51°17.366 2°52.276 323.8 12 317 10.5
2012-02-21 08:02:59 51°17.378 2°52.258 323.9 12 317 10.9
2012-02-21 08:03:03 51°17.388 2°52.243 324 12 317 11.1
2012-02-21 08:03:08 51°17.4 2°52.225 323.3 12.1 315 11.1
2012-02-21 08:03:14 51°17.415 2°52.202 322.7 12.1 316 11.3
2012-02-21 08:03:19 51°17.427 2°52.184 323 12.1 317 11
2012-02-21 08:03:23 51°17.436 2°52.169 323.9 12.1 317 11.2
2012-02-21 08:03:29 51°17.451 2°52.148 324.8 12 319 10.9
2012-02-21 08:03:34 51°17.464 2°52.13 325.2 12 318 11.4
2012-02-21 08:03:39 51°17.476 2°52.112 325 12 317 11.1
2012-02-21 08:03:43 51°17.486 2°52.098 324.7 12 318 11.2
2012-02-21 08:03:49 51°17.501 2°52.076 324.6 12 318 11.2
2012-02-21 08:03:54 51°17.513 2°52.059 325.5 12 319 11.2
2012-02-21 08:03:59 51°17.526 2°52.041 326.6 12 319 11
2012-02-21 08:04:03 51°17.536 2°52.027 326.8 12 318 10.7
2012-02-21 08:04:09 51°17.551 2°52.006 326.4 12 319 10.6
2012-02-21 08:04:14 51°17.563 2°51.99 326.7 11.9 320 10.4
2012-02-21 08:04:19 51°17.576 2°51.972 326.9 11.8 319 10.3
2012-02-21 08:04:23 51°17.585 2°51.959 326.5 11.8 319 10.5
2012-02-21 08:04:28 51°17.598 2°51.942 326.3 11.8 319 10.3
2012-02-21 08:04:34 51°17.612 2°51.921 326 11.8 319 10
2012-02-21 08:04:39 51°17.625 2°51.904 326.1 11.8 319 10.4
2012-02-21 08:04:43 51°17.635 2°51.891 327.1 11.8 320 10.4
2012-02-21 08:04:48 51°17.648 2°51.874 327 11.8 319 10
2012-02-21 08:04:54 51°17.663 2°51.855 327.7 11.8 322 9.8
2012-02-21 08:04:59 51°17.675 2°51.837 327.6 11.9 318 10
2012-02-21 08:05:03 51°17.685 2°51.824 327.3 11.8 321 9.9
2012-02-21 08:05:08 51°17.698 2°51.807 327.3 11.8 320 10.1
2012-02-21 08:05:14 51°17.713 2°51.787 327.6 11.8 320 10
2012-02-21 08:05:19 51°17.725 2°51.769 326.7 11.9 318 10
2012-02-21 08:05:23 51°17.735 2°51.754 324.9 12 316 10.2
2012-02-21 08:05:29 51°17.749 2°51.732 323.6 12 315 9.8
2012-02-21 08:05:34 51°17.761 2°51.714 322.8 12 315 10.2
2012-02-21 08:05:39 51°17.772 2°51.695 322.5 11.9 314 9.9
2012-02-21 08:05:43 51°17.781 2°51.679 320.7 12 314 9.8
2012-02-21 08:05:48 51°17.793 2°51.66 321.2 12 313 10
2012-02-21 08:05:54 51°17.806 2°51.636 320.7 12 312 10.1
2012-02-21 08:05:59 51°17.818 2°51.618 320.3 12 314 10.1
2012-02-21 08:06:03 51°17.827 2°51.602 320.9 12.1 314 10.1
2012-02-21 08:06:09 51°17.841 2°51.579 321.6 12.1 315 9.9
2012-02-21 08:06:14 51°17.854 2°51.561 322.8 12 317 10
2012-02-21 08:06:19 51°17.866 2°51.544 324.5 12 318 10.3
2012-02-21 08:06:23 51°17.876 2°51.53 326 12.1 319 9.9
2012-02-21 08:06:29 51°17.891 2°51.509 326 12 318 10.2
2012-02-21 08:06:34 51°17.904 2°51.492 325.5 12 317 10.4
2012-02-21 08:06:39 51°17.916 2°51.473 324.5 12 316 10.5
2012-02-21 08:06:43 51°17.925 2°51.457 323.5 12.1 314 10.7
2012-02-21 08:06:48 51°17.937 2°51.438 322.5 12.2 315 10.6
2012-02-21 08:06:54 51°17.951 2°51.415 322.3 12.1 314 10.6
2012-02-21 08:06:59 51°17.963 2°51.396 322.4 12.1 315 10.9
2012-02-21 08:07:03 51°17.972 2°51.381 322.4 12.2 315 10.8
2012-02-21 08:07:09 51°17.987 2°51.358 322.8 12.1 316 10.9
2012-02-21 08:07:14 51°17.999 2°51.339 322.9 12.1 317 11
2012-02-21 08:07:19 51°18.012 2°51.323 325.9 12.1 321 11.2
2012-02-21 08:07:23 51°18.023 2°51.311 329.6 12 325 11.4
2012-02-21 08:07:28 51°18.037 2°51.296 332.4 11.9 326 11.5
2012-02-21 08:07:34 51°18.054 2°51.28 334.7 11.8 331 11.4
2012-02-21 08:07:39 51°18.068 2°51.268 338.4 11.8 332 11.5
2012-02-21 08:07:43 51°18.08 2°51.26 340.8 11.7 335 11.3
2012-02-21 08:07:49 51°18.098 2°51.248 343.5 11.6 339 11.8
2012-02-21 08:07:54 51°18.113 2°51.237 345.2 11.7 337 12.3
2012-02-21 08:07:59 51°18.128 2°51.228 345.5 11.6 339 12
2012-02-21 08:08:03 51°18.14 2°51.221 346.5 11.6 339 12.1
2012-02-21 08:08:08 51°18.155 2°51.212 347.4 11.7 340 12.2
2012-02-21 08:08:14 51°18.173 2°51.201 348.9 11.7 339 12.2
2012-02-21 08:08:19 51°18.188 2°51.192 348 11.7 341 12.3
2012-02-21 08:08:23 51°18.201 2°51.186 348.9 11.7 341 12.6
2012-02-21 08:08:29 51°18.219 2°51.176 348.7 11.6 342 12.5
2012-02-21 08:08:34 51°18.235 2°51.167 349.5 11.8 340 12.6
2012-02-21 08:08:39 51°18.25 2°51.158 348.9 11.7 341 12.5
2012-02-21 08:08:43 51°18.262 2°51.152 349.1 11.6 343 12.7
2012-02-21 08:08:48 51°18.278 2°51.145 351.1 11.6 344 12.9
2012-02-21 08:08:54 51°18.296 2°51.136 351.3 11.6 343 13.2
2012-02-21 08:08:59 51°18.311 2°51.128 351.2 11.4 342 12.8
2012-02-21 08:09:03 51°18.323 2°51.123 352 11.1 343 13.2
2012-02-21 08:09:08 51°18.337 2°51.115 351.5 10.7 341 13.3
2012-02-21 08:09:14 51°18.353 2°51.107 350.9 10.2 343 13.6
2012-02-21 08:09:19 51°18.366 2°51.1 350.7 9.8 341 13.3
2012-02-21 08:09:23 51°18.376 2°51.095 351.4 9.2 343 13.2
2012-02-21 08:09:29 51°18.39 2°51.088 351.6 8.9 341 13.7
2012-02-21 08:09:34 51°18.402 2°51.083 352.1 8.4 345 13.8
2012-02-21 08:09:39 51°18.412 2°51.077 352.4 8.2 341 13.5
2012-02-21 08:09:43 51°18.42 2°51.072 352 8 341 13.4
2012-02-21 08:09:48 51°18.431 2°51.066 351.3 7.7 340 13.8
2012-02-21 08:09:54 51°18.442 2°51.06 350.6 7.3 339 14
2012-02-21 08:09:59 51°18.451 2°51.054 350.3 6.8 337 13.9
2012-02-21 08:10:03 51°18.457 2°51.048 349.4 6.3 335 13.5
2012-02-21 08:10:09 51°18.465 2°51.041 348.3 5.9 333 13.5
2012-02-21 08:10:14 51°18.472 2°51.035 346.5 5.4 330 13.6
2012-02-21 08:10:19 51°18.478 2°51.029 344.6 5.1 327 13.8
2012-02-21 08:10:23 51°18.482 2°51.024 342.4 4.8 324 14
2012-02-21 08:10:28 51°18.487 2°51.018 339.4 4.5 319 14
2012-02-21 08:10:34 51°18.492 2°51.01 337.3 4.2 315 14.1
2012-02-21 08:10:39 51°18.495 2°51.004 334.8 3.8 312 14.3
2012-02-21 08:10:43 51°18.497 2°51 332.1 3.1 308 14.1
2012-02-21 08:10:49 51°18.499 2°50.994 329.4 2.7 297 14.2
2012-02-21 08:10:54 51°18.5 2°50.99 326.5 2.2 290 14.1
2012-02-21 08:10:59 51°18.501 2°50.986 321.9 1.6 281 14
2012-02-21 08:11:03 51°18.501 2°50.984 318.7 1.4 267 14
2012-02-21 08:11:09 51°18.5 2°50.982 315.8 0.9 235 14.1
2012-02-21 08:11:14 51°18.499 2°50.98 314.7 0.9 215 14.1
2012-02-21 08:11:19 51°18.498 2°50.979 314.2 1 216 13.9
2012-02-21 08:11:23 51°18.497 2°50.977 313.8 0.9 221 14.1
2012-02-21 08:11:28 51°18.496 2°50.976 313.6 0.9 222 14.1
2012-02-21 08:11:34 51°18.495 2°50.974 313.6 0.9 223 13.9
2012-02-21 08:11:39 51°18.494 2°50.973 313.7 1 225 14
2012-02-21 08:11:43 51°18.493 2°50.972 314 0.8 223 14.1
2012-02-21 08:11:48 51°18.492 2°50.971 314.4 0.9 225 14.2
2012-02-21 08:11:54 51°18.491 2°50.969 314.3 0.7 216 13.9
2012-02-21 08:11:59 51°18.49 2°50.968 314.6 0.9 220 13.9
2012-02-21 08:12:03 51°18.49 2°50.967 315.6 0.7 213 13.9
2012-02-21 08:12:09 51°18.489 2°50.966 316.4 0.9 225 13.9
2012-02-21 08:12:14 51°18.488 2°50.965 317.2 0.7 219 13.8
2012-02-21 08:12:19 51°18.487 2°50.964 318.2 0.9 216 13.9
2012-02-21 08:12:23 51°18.486 2°50.963 320.1 0.8 214 14.1
2012-02-21 08:12:28 51°18.485 2°50.962 321.3 0.9 216 13.9
2012-02-21 08:12:34 51°18.484 2°50.961 322.8 0.8 213 14.1
2012-02-21 08:12:39 51°18.483 2°50.96 323.9 0.8 214 14.3
2012-02-21 08:12:43 51°18.482 2°50.959 324.8 0.9 217 14.3
2012-02-21 08:12:49 51°18.481 2°50.957 325.9 0.9 218 14
2012-02-21 08:12:54 51°18.48 2°50.956 327 0.8 218 14
2012-02-21 08:12:59 51°18.48 2°50.955 327.8 0.8 215 13.9
2012-02-21 08:13:03 51°18.479 2°50.954 328.4 0.8 218 14
2012-02-21 08:13:09 51°18.478 2°50.953 329.1 0.9 213 13.8
2012-02-21 08:13:14 51°18.477 2°50.952 329.9 0.9 212 13.8
2012-02-21 08:13:19 51°18.476 2°50.951 330.9 0.9 215 14
2012-02-21 08:13:23 51°18.475 2°50.95 331.4 0.8 211 14.1
2012-02-21 08:13:27 51°18.475 2°50.949 332 0.7 214 14.2
2012-02-21 08:13:34 51°18.473 2°50.948 332.7 0.8 207 13.8
2012-02-21 08:13:39 51°18.472 2°50.947 333.2 0.9 217 14
2012-02-21 08:13:43 51°18.471 2°50.946 334.3 0.9 215 14.2
2012-02-21 08:13:48 51°18.47 2°50.945 334.6 0.9 221 14.2
2012-02-21 08:13:54 51°18.469 2°50.943 334.8 0.8 212 14.1
2012-02-21 08:13:59 51°18.468 2°50.942 335.4 0.8 216 14.2
2012-02-21 08:14:03 51°18.467 2°50.941 335.9 0.8 220 14.1
2012-02-21 08:14:08 51°18.467 2°50.941 335.9 0.8 220 13.8
2012-02-21 08:14:14 51°18.465 2°50.939 336.1 0.8 214 13.7
2012-02-21 08:14:19 51°18.465 2°50.938 336.9 0.8 213 14
2012-02-21 08:14:23 51°18.464 2°50.937 337.9 0.8 215 14.1
2012-02-21 08:14:28 51°18.463 2°50.936 338.4 0.8 214 14.3
2012-02-21 08:14:34 51°18.462 2°50.935 339.1 0.8 212 14
2012-02-21 08:14:39 51°18.461 2°50.935 339.7 0.7 205 14
2012-02-21 08:14:43 51°18.46 2°50.933 340.5 0.9 219 14.2
2012-02-21 08:14:49 51°18.459 2°50.932 341 1 221 13.9
2012-02-21 08:14:54 51°18.458 2°50.931 341.1 0.9 214 14.2
2012-02-21 08:14:59 51°18.457 2°50.93 341.3 0.7 211 14.3
2012-02-21 08:15:03 51°18.456 2°50.929 341.4 0.9 213 14.3
2012-02-21 08:15:09 51°18.455 2°50.928 341.2 0.8 213 14
2012-02-21 08:15:14 51°18.454 2°50.926 340.7 0.8 215 13.9
2012-02-21 08:15:19 51°18.453 2°50.925 340.6 0.8 213 14.2
2012-02-21 08:15:23 51°18.452 2°50.925 340.5 0.8 218 14.1
2012-02-21 08:15:29 51°18.451 2°50.923 339.9 0.8 214 13.8
2012-02-21 08:15:34 51°18.45 2°50.922 339.8 0.8 213 14.1
2012-02-21 08:15:39 51°18.449 2°50.922 340.9 0.7 209 14.3
2012-02-21 08:15:43 51°18.449 2°50.921 340.9 0.9 214 14.1
2012-02-21 08:15:48 51°18.447 2°50.919 340.3 0.8 209 14.1
2012-02-21 08:15:54 51°18.446 2°50.918 340.2 0.8 208 14.1
2012-02-21 08:15:59 51°18.445 2°50.917 340.1 0.8 213 14.2
2012-02-21 08:16:03 51°18.444 2°50.916 340.1 0.9 216 14.1
2012-02-21 08:16:08 51°18.443 2°50.915 339.8 1 223 14
2012-02-21 08:16:14 51°18.442 2°50.914 339.4 0.9 222 14.1
2012-02-21 08:16:19 51°18.441 2°50.913 339 0.8 219 14.1
2012-02-21 08:16:23 51°18.441 2°50.912 338.8 0.7 213 14.2
2012-02-21 08:16:29 51°18.439 2°50.911 338.4 0.8 216 14.2
2012-02-21 08:16:34 51°18.438 2°50.91 337.9 0.9 217 14.3
2012-02-21 08:16:39 51°18.437 2°50.908 337.7 0.9 223 14
2012-02-21 08:16:43 51°18.437 2°50.907 337.3 1 226 13.9
2012-02-21 08:16:48 51°18.436 2°50.907 336.9 0.8 216 13.9
2012-02-21 08:16:54 51°18.435 2°50.905 336.4 0.8 217 13.8
2012-02-21 08:16:59 51°18.434 2°50.904 336.1 0.8 216 13.9
2012-02-21 08:17:03 51°18.433 2°50.903 336.1 0.8 217 14
2012-02-21 08:17:09 51°18.432 2°50.902 335.8 0.8 223 14.2
2012-02-21 08:17:14 51°18.431 2°50.901 335.5 0.8 223 13.9
2012-02-21 08:17:19 51°18.43 2°50.9 335.3 0.8 223 14
2012-02-21 08:17:23 51°18.43 2°50.899 335.2 0.8 222 13.8
2012-02-21 08:17:28 51°18.429 2°50.898 334.9 0.7 218 13.7
2012-02-21 08:17:34 51°18.428 2°50.896 334.7 0.7 217 13.9
2012-02-21 08:17:39 51°18.427 2°50.895 334.7 0.7 222 14
2012-02-21 08:17:43 51°18.426 2°50.894 334.1 0.8 221 14.1
2012-02-21 08:17:49 51°18.425 2°50.893 333.6 0.8 221 14
2012-02-21 08:17:54 51°18.424 2°50.891 333.2 0.8 224 14
2012-02-21 08:17:59 51°18.423 2°50.89 332.7 0.9 224 13.9
2012-02-21 08:18:03 51°18.423 2°50.889 332.4 0.8 224 13.7
2012-02-21 08:18:08 51°18.422 2°50.888 331.8 0.9 223 13.7
2012-02-21 08:18:14 51°18.421 2°50.886 331.3 0.8 222 14
2012-02-21 08:18:19 51°18.42 2°50.885 330.7 0.8 223 14.2
2012-02-21 08:18:23 51°18.419 2°50.884 330.1 0.8 222 14
2012-02-21 08:18:29 51°18.418 2°50.883 329.2 0.9 224 14
2012-02-21 08:18:34 51°18.417 2°50.881 328.9 0.8 222 14.1
2012-02-21 08:18:39 51°18.416 2°50.88 328.2 0.9 225 14.1
2012-02-21 08:18:43 51°18.416 2°50.879 327.5 0.8 220 14.2
2012-02-21 08:18:48 51°18.415 2°50.878 327.3 0.8 223 14.1
2012-02-21 08:18:54 51°18.414 2°50.877 326.8 0.9 217 14.1
2012-02-21 08:18:59 51°18.413 2°50.876 326.7 0.8 217 14.1
2012-02-21 08:19:03 51°18.413 2°50.875 326.5 0.7 221 14.3
2012-02-21 08:19:09 51°18.412 2°50.873 326.2 0.8 220 14.2
2012-02-21 08:19:14 51°18.411 2°50.872 325.8 0.8 221 14.3
2012-02-21 08:19:19 51°18.41 2°50.871 325.4 0.7 219 14.1
2012-02-21 08:19:23 51°18.41 2°50.87 325.2 0.7 222 14
2012-02-21 08:19:28 51°18.408 2°50.869 325.7 0.8 219 13.9
2012-02-21 08:19:34 51°18.407 2°50.867 325.7 0.9 219 13.9
2012-02-21 08:19:39 51°18.406 2°50.866 325.8 0.9 219 14
2012-02-21 08:19:43 51°18.406 2°50.866 325.7 0.8 213 14.2
2012-02-21 08:19:49 51°18.405 2°50.864 325.5 0.7 218 14.1
2012-02-21 08:19:54 51°18.404 2°50.863 325.2 0.7 220 14.2
2012-02-21 08:19:59 51°18.403 2°50.862 325.2 0.6 216 14.3
2012-02-21 08:20:03 51°18.402 2°50.861 325.1 0.8 217 13.9
2012-02-21 08:20:09 51°18.401 2°50.86 325.2 0.6 218 13.8
2012-02-21 08:20:14 51°18.4 2°50.859 325.2 0.7 215 13.8
2012-02-21 08:20:19 51°18.399 2°50.858 325.3 0.8 215 13.9
2012-02-21 08:20:23 51°18.399 2°50.857 325.2 0.7 216 14
2012-02-21 08:20:28 51°18.397 2°50.856 325.2 0.8 216 14.1
2012-02-21 08:20:34 51°18.396 2°50.855 325.2 1 218 14.1
2012-02-21 08:20:39 51°18.395 2°50.854 324.6 0.9 218 13.9
2012-02-21 08:20:43 51°18.394 2°50.853 324.5 0.8 213 14
2012-02-21 08:20:48 51°18.394 2°50.852 324.7 0.7 216 13.9
2012-02-21 08:20:54 51°18.392 2°50.851 325 1 216 13.8
2012-02-21 08:20:59 51°18.391 2°50.85 325.3 1 213 13.8
2012-02-21 08:21:03 51°18.39 2°50.849 325.6 0.9 216 13.8
2012-02-21 08:21:08 51°18.389 2°50.848 325.6 0.9 215 13.8
2012-02-21 08:21:14 51°18.388 2°50.846 325.8 0.9 216 14.1
2012-02-21 08:21:19 51°18.387 2°50.845 326 0.8 217 14
2012-02-21 08:21:23 51°18.387 2°50.845 326.3 0.8 214 13.8
2012-02-21 08:21:29 51°18.386 2°50.844 326.7 0.7 216 13.8
2012-02-21 08:21:34 51°18.385 2°50.843 326.9 0.8 213 13.9
2012-02-21 08:21:39 51°18.384 2°50.842 327.4 0.9 212 14.1
2012-02-21 08:21:43 51°18.383 2°50.841 327.7 0.7 209 13.9
2012-02-21 08:21:48 51°18.382 2°50.84 328 0.7 210 14
2012-02-21 08:21:54 51°18.381 2°50.839 328.5 0.8 214 14.1
2012-02-21 08:21:59 51°18.38 2°50.838 328.9 1 214 14
2012-02-21 08:22:03 51°18.379 2°50.837 329.4 0.9 214 13.9
2012-02-21 08:22:09 51°18.378 2°50.836 329.9 0.9 207 14
2012-02-21 08:22:14 51°18.377 2°50.835 330.4 0.9 206 14.4
2012-02-21 08:22:19 51°18.376 2°50.835 331.1 0.8 203 14.4
2012-02-21 08:22:23 51°18.375 2°50.835 331.5 0.8 196 14.5
2012-02-21 08:22:28 51°18.374 2°50.834 331.9 0.8 205 14.2
2012-02-21 08:22:34 51°18.373 2°50.832 332.3 0.8 208 14.1
2012-02-21 08:22:39 51°18.372 2°50.832 333.1 0.7 202 14.3
2012-02-21 08:22:43 51°18.371 2°50.831 333.6 1 209 14.1
2012-02-21 08:22:48 51°18.37 2°50.83 333.9 0.9 208 13.8
2012-02-21 08:22:54 51°18.369 2°50.829 334 0.7 210 14
2012-02-21 08:22:59 51°18.368 2°50.828 334 0.8 212 14.1
2012-02-21 08:23:03 51°18.367 2°50.828 333.7 0.8 210 13.9
2012-02-21 08:23:08 51°18.366 2°50.827 333.7 0.8 208 13.9
2012-02-21 08:23:14 51°18.365 2°50.826 333.8 0.7 202 13.8
2012-02-21 08:23:19 51°18.364 2°50.825 334.3 0.8 209 13.9
2012-02-21 08:23:23 51°18.363 2°50.825 334.5 0.7 206 13.7
2012-02-21 08:23:29 51°18.362 2°50.824 334.6 0.7 201 13.8
2012-02-21 08:23:34 51°18.36 2°50.823 335.1 0.9 205 14.1
2012-02-21 08:23:39 51°18.359 2°50.822 335.2 0.8 202 14.2
2012-02-21 08:23:43 51°18.358 2°50.821 335.4 0.9 205 14
2012-02-21 08:23:48 51°18.357 2°50.82 335.5 0.9 207 14.1
2012-02-21 08:23:54 51°18.356 2°50.82 335.8 0.8 207 13.9
2012-02-21 08:23:59 51°18.356 2°50.819 335.4 0.7 205 13.9
2012-02-21 08:24:03 51°18.354 2°50.818 335.7 0.8 209 14
2012-02-21 08:24:09 51°18.353 2°50.817 335.8 0.8 207 14
2012-02-21 08:24:14 51°18.352 2°50.816 335.8 1 210 13.8
2012-02-21 08:24:19 51°18.351 2°50.816 335.7 0.9 202 13.7
2012-02-21 08:24:23 51°18.35 2°50.815 336.3 0.8 211 13.8
2012-02-21 08:24:29 51°18.349 2°50.814 336.5 0.8 203 13.9
2012-02-21 08:24:34 51°18.348 2°50.814 336.9 0.7 199 13.9
2012-02-21 08:24:39 51°18.347 2°50.813 337.2 0.7 206 13.7
2012-02-21 08:24:43 51°18.346 2°50.812 337.2 0.9 206 13.7
2012-02-21 08:24:49 51°18.345 2°50.811 337.6 0.8 205 13.8
2012-02-21 08:24:54 51°18.344 2°50.81 338.1 0.8 207 14.1
2012-02-21 08:24:59 51°18.343 2°50.809 338.2 0.8 205 14
2012-02-21 08:25:03 51°18.342 2°50.808 338.7 0.8 209 14.1
2012-02-21 08:25:09 51°18.34 2°50.807 338.8 0.9 209 14
2012-02-21 08:25:14 51°18.34 2°50.807 338.6 0.9 211 13.8
2012-02-21 08:25:19 51°18.339 2°50.806 338.9 0.7 204 13.8
2012-02-21 08:25:23 51°18.338 2°50.805 338.8 0.8 209 14
2012-02-21 08:25:29 51°18.337 2°50.804 338.9 0.8 209 13.7
2012-02-21 08:25:34 51°18.336 2°50.803 338.5 0.7 209 13.6
2012-02-21 08:25:39 51°18.335 2°50.802 338.8 0.7 206 13.9
2012-02-21 08:25:43 51°18.334 2°50.802 338.7 0.8 210 14
2012-02-21 08:25:48 51°18.333 2°50.801 338.3 0.7 208 13.8
2012-02-21 08:25:54 51°18.332 2°50.8 338.1 0.9 211 13.8
2012-02-21 08:25:59 51°18.331 2°50.799 338.2 0.7 208 13.9
2012-02-21 08:26:04 51°18.33 2°50.798 338.2 0.8 211 14
2012-02-21 08:26:09 51°18.329 2°50.797 338 0.8 212 14.1
2012-02-21 08:26:14 51°18.328 2°50.796 338 0.8 214 13.8
2012-02-21 08:26:19 51°18.327 2°50.795 337.6 0.9 211 14
2012-02-21 08:26:23 51°18.326 2°50.795 337.5 0.9 213 13.9
2012-02-21 08:26:29 51°18.325 2°50.793 337.6 0.8 214 13.8
2012-02-21 08:26:34 51°18.324 2°50.793 337.5 0.7 213 13.8
2012-02-21 08:26:39 51°18.324 2°50.792 337.5 0.8 213 13.8
2012-02-21 08:26:43 51°18.323 2°50.791 337.8 0.7 214 13.9
2012-02-21 08:26:49 51°18.321 2°50.79 338.3 0.8 210 14
2012-02-21 08:26:54 51°18.321 2°50.79 338.3 0.9 211 13.8
2012-02-21 08:26:59 51°18.32 2°50.789 338.3 0.7 212 13.8
2012-02-21 08:27:03 51°18.319 2°50.789 338.6 0.6 213 13.9
2012-02-21 08:27:09 51°18.318 2°50.787 338.8 0.7 217 14.1
2012-02-21 08:27:14 51°18.317 2°50.787 338.3 0.6 210 14.2
2012-02-21 08:27:19 51°18.316 2°50.785 338.5 0.7 208 14.3
2012-02-21 08:27:23 51°18.315 2°50.784 338.3 0.9 209 14.3
2012-02-21 08:27:28 51°18.314 2°50.784 338.6 1 208 14.2
2012-02-21 08:27:34 51°18.313 2°50.783 338.8 0.8 209 14.1
2012-02-21 08:27:39 51°18.312 2°50.782 339 0.9 204 14.1
2012-02-21 08:27:43 51°18.311 2°50.781 339.4 1 207 14.2
2012-02-21 08:27:48 51°18.31 2°50.78 339 1 210 14
2012-02-21 08:27:54 51°18.309 2°50.778 339.8 1 209 13.9
2012-02-21 08:27:59 51°18.307 2°50.778 339.2 1 209 13.7
2012-02-21 08:28:03 51°18.307 2°50.777 338.9 0.9 205 14.2
2012-02-21 08:28:09 51°18.306 2°50.776 338.7 0.9 208 14.1
2012-02-21 08:28:14 51°18.305 2°50.775 338.8 0.8 207 14.1
2012-02-21 08:28:19 51°18.303 2°50.774 338.4 0.9 209 14
2012-02-21 08:28:23 51°18.303 2°50.774 338.1 0.7 210 14
2012-02-21 08:28:28 51°18.302 2°50.772 337.8 0.8 214 13.9
2012-02-21 08:28:34 51°18.301 2°50.772 337.6 0.8 211 13.9